createdAt,value
2022-11-03T00:01:39.878Z,21.33
2022-11-03T00:04:11.271Z,21.33
2022-11-03T00:06:38.377Z,35.03
2022-11-03T00:09:08.512Z,20.42
2022-11-03T00:11:39.746Z,19.77
2022-11-03T00:14:07.038Z,27.13
2022-11-03T00:16:33.902Z,23.60
2022-11-03T00:19:00.947Z,22.65
2022-11-03T00:21:28.064Z,26.13
2022-11-03T00:23:57.271Z,23.77
2022-11-03T00:26:28.775Z,23.90
2022-11-03T00:28:57.304Z,34.53
2022-11-03T00:31:31.338Z,24.88
2022-11-03T00:33:59.227Z,26.35
2022-11-03T00:36:28.579Z,31.02
2022-11-03T00:38:55.734Z,25.20
2022-11-03T00:41:24.021Z,38.05
2022-11-03T00:43:51.695Z,31.55
2022-11-03T00:46:20.070Z,32.50
2022-11-03T00:48:47.029Z,26.45
2022-11-03T00:51:15.805Z,21.52
2022-11-03T00:53:47.934Z,25.48
2022-11-03T00:56:17.119Z,20.30
2022-11-03T00:58:44.198Z,18.23
2022-11-03T01:01:14.698Z,21.85
2022-11-03T01:04:03.373Z,21.30
2022-11-03T01:06:50.692Z,16.23
2022-11-03T01:09:24.475Z,15.52
2022-11-03T01:14:20.514Z,15.48
2022-11-03T01:16:47.117Z,10.05
2022-11-03T01:19:13.728Z,16.25
2022-11-03T01:21:40.338Z,18.23
2022-11-03T01:24:07.028Z,10.50
2022-11-03T01:26:33.604Z,14.20
2022-11-03T01:29:00.595Z,10.27
2022-11-03T01:31:28.222Z,14.80
2022-11-03T01:33:56.583Z,26.48
2022-11-03T01:36:24.137Z,52.10
2022-11-03T01:38:51.039Z,60.13
2022-11-03T01:41:20.532Z,25.95
2022-11-03T01:44:04.928Z,17.08
2022-11-03T01:46:31.785Z,15.27
2022-11-03T01:49:11.024Z,15.80
2022-11-03T01:51:39.371Z,26.45
2022-11-03T01:54:10.659Z,17.70
2022-11-03T01:56:41.063Z,17.65
2022-11-03T01:59:07.976Z,19.45
2022-11-03T02:01:35.108Z,17.20
2022-11-03T02:04:10.365Z,19.67
2022-11-03T02:06:37.449Z,18.58
2022-11-03T02:09:07.386Z,19.27
2022-11-03T02:11:53.715Z,20.92
2022-11-03T02:14:20.722Z,17.50
2022-11-03T02:16:57.881Z,15.50
2022-11-03T02:19:50.519Z,17.58
2022-11-03T02:22:59.174Z,15.00
2022-11-03T02:25:37.297Z,19.25
2022-11-03T02:28:05.863Z,18.52
2022-11-03T02:30:49.747Z,18.67
2022-11-03T02:33:45.547Z,21.25
2022-11-03T02:36:18.373Z,18.20
2022-11-03T02:38:55.764Z,16.63
2022-11-03T02:41:24.446Z,20.90
2022-11-03T02:43:52.238Z,16.98
2022-11-03T02:46:19.641Z,17.83
2022-11-03T02:48:47.730Z,17.40
2022-11-03T02:51:14.267Z,19.35
2022-11-03T02:53:49.863Z,15.20
2022-11-03T02:56:23.182Z,18.27
2022-11-03T02:58:54.766Z,19.83
2022-11-03T03:01:47.657Z,19.45
2022-11-03T03:04:25.792Z,17.13
2022-11-03T03:06:57.426Z,14.95
2022-11-03T03:09:41.068Z,15.65
2022-11-03T03:12:10.647Z,17.20
2022-11-03T03:14:41.822Z,16.00
2022-11-03T03:17:34.139Z,14.85
2022-11-03T03:20:23.069Z,15.48
2022-11-03T03:22:56.825Z,17.55
2022-11-03T03:28:22.495Z,14.68
2022-11-03T03:30:50.565Z,15.88
2022-11-03T03:33:18.591Z,17.15
2022-11-03T03:35:49.689Z,14.07
2022-11-03T03:38:26.065Z,15.77
2022-11-03T03:40:55.848Z,15.25
2022-11-03T03:43:24.013Z,14.23
2022-11-03T03:45:53.330Z,16.52
2022-11-03T03:48:20.232Z,17.77
2022-11-03T03:50:49.782Z,16.48
2022-11-03T03:53:19.040Z,20.10
2022-11-03T03:55:49.577Z,18.67
2022-11-03T03:58:17.051Z,17.67
2022-11-03T04:00:43.714Z,16.92
2022-11-03T04:03:21.613Z,18.33
2022-11-03T04:05:48.841Z,19.33
2022-11-03T04:08:16.924Z,17.27
2022-11-03T04:11:02.731Z,19.35
2022-11-03T04:13:49.580Z,21.33
2022-11-03T04:16:35.458Z,17.85
2022-11-03T04:19:20.704Z,17.83
2022-11-03T04:22:05.348Z,15.30
2022-11-03T04:24:34.402Z,15.80
2022-11-03T04:27:31.148Z,14.68
2022-11-03T04:30:09.795Z,15.90
2022-11-03T04:32:37.196Z,17.65
2022-11-03T04:35:25.540Z,18.42
2022-11-03T04:37:59.085Z,14.38
2022-11-03T04:40:25.772Z,16.08
2022-11-03T04:42:52.676Z,15.40
2022-11-03T04:45:32.418Z,14.63
2022-11-03T04:48:02.034Z,14.38
2022-11-03T04:50:28.626Z,15.00
2022-11-03T04:52:57.187Z,14.70
2022-11-03T04:55:24.600Z,16.23
2022-11-03T04:58:00.219Z,17.85
2022-11-03T05:00:27.060Z,21.15
2022-11-03T05:02:56.136Z,16.55
2022-11-03T05:05:26.068Z,25.92
2022-11-03T05:07:55.485Z,26.08
2022-11-03T05:10:27.972Z,28.00
2022-11-03T05:12:55.880Z,29.58
2022-11-03T05:15:42.621Z,21.50
2022-11-03T05:18:20.198Z,22.60
2022-11-03T05:20:54.028Z,22.63
2022-11-03T05:23:21.539Z,23.20
2022-11-03T05:25:52.539Z,18.50
2022-11-03T05:28:39.579Z,21.85
2022-11-03T05:31:20.292Z,23.42
2022-11-03T05:33:47.402Z,19.27
2022-11-03T05:36:19.132Z,16.60
2022-11-03T05:38:45.961Z,11.68
2022-11-03T05:41:19.860Z,16.70
2022-11-03T05:44:01.874Z,11.80
2022-11-03T05:46:35.053Z,10.77
2022-11-03T05:49:02.961Z,41.03
2022-11-03T05:51:38.012Z,15.95
2022-11-03T05:54:14.410Z,18.58
2022-11-03T05:56:43.686Z,26.50
2022-11-03T05:59:13.735Z,23.45
2022-11-03T06:01:41.506Z,44.75
2022-11-03T06:04:28.832Z,37.63
2022-11-03T06:07:15.060Z,36.78
2022-11-03T06:09:41.711Z,30.52
2022-11-03T06:12:14.434Z,24.35
2022-11-03T06:14:41.164Z,13.15
2022-11-03T06:17:21.464Z,15.80
2022-11-03T06:19:50.154Z,13.75
2022-11-03T06:22:24.571Z,14.60
2022-11-03T06:25:09.826Z,14.85
2022-11-03T06:27:36.349Z,13.23
2022-11-03T06:30:14.525Z,13.93
2022-11-03T06:32:43.506Z,13.23
2022-11-03T06:35:12.105Z,10.25
2022-11-03T06:37:38.916Z,12.90
2022-11-03T06:40:11.594Z,11.05
2022-11-03T06:42:40.016Z,8.93
2022-11-03T06:45:19.825Z,10.95
2022-11-03T06:47:47.077Z,11.60
2022-11-03T06:50:27.698Z,9.68
2022-11-03T06:52:56.079Z,9.93
2022-11-03T06:55:26.462Z,9.88
2022-11-03T06:58:04.076Z,13.45
2022-11-03T07:00:36.332Z,9.10
2022-11-03T07:03:17.455Z,9.68
2022-11-03T07:05:47.796Z,9.50
2022-11-03T07:08:17.374Z,9.27
2022-11-03T07:10:44.145Z,10.18
2022-11-03T07:13:15.554Z,12.27
2022-11-03T07:15:44.048Z,9.52
2022-11-03T07:18:39.641Z,12.95
2022-11-03T07:21:43.866Z,13.10
2022-11-03T07:24:22.454Z,13.27
2022-11-03T07:26:53.923Z,14.68
2022-11-03T07:29:26.999Z,9.90
2022-11-03T07:31:54.658Z,14.32
2022-11-03T07:34:25.243Z,17.08
2022-11-03T07:36:55.977Z,18.67
2022-11-03T07:39:25.236Z,19.00
2022-11-03T07:41:54.533Z,21.00
2022-11-03T07:44:21.498Z,18.45
2022-11-03T07:46:50.143Z,19.85
2022-11-03T07:49:26.725Z,25.30
2022-11-03T07:51:54.414Z,19.45
2022-11-03T07:54:24.768Z,22.20
2022-11-03T07:57:41.023Z,24.67
2022-11-03T08:00:17.267Z,17.45
2022-11-03T08:02:50.704Z,15.48
2022-11-03T08:05:17.328Z,15.32
2022-11-03T08:07:50.705Z,18.38
2022-11-03T08:10:21.396Z,18.80
2022-11-03T08:12:50.343Z,19.60
2022-11-03T08:15:16.978Z,19.48
2022-11-03T08:17:43.522Z,20.42
2022-11-03T08:20:10.489Z,18.73
2022-11-03T08:22:37.088Z,24.42
2022-11-03T08:25:06.694Z,21.45
2022-11-03T08:27:33.315Z,18.98
2022-11-03T08:30:00.009Z,18.60
2022-11-03T08:32:26.784Z,25.80
2022-11-03T08:34:53.350Z,27.17
2022-11-03T08:37:19.898Z,30.08
2022-11-03T08:39:46.450Z,32.67
2022-11-03T08:42:13.008Z,40.95
2022-11-03T08:44:39.571Z,31.85
2022-11-03T08:47:06.124Z,38.58
2022-11-03T08:49:32.692Z,34.92
2022-11-03T08:51:59.265Z,36.05
2022-11-03T08:54:26.511Z,41.55
2022-11-03T08:56:53.044Z,36.63
2022-11-03T08:59:19.643Z,37.22
2022-11-03T09:01:48.517Z,34.85
2022-11-03T09:04:15.177Z,34.05
2022-11-03T09:06:41.762Z,34.35
2022-11-03T09:11:54.842Z,37.33
2022-11-03T09:14:21.404Z,26.55
2022-11-03T09:16:47.927Z,25.30
2022-11-03T09:19:14.457Z,26.70
2022-11-03T09:21:41.003Z,27.67
2022-11-03T09:24:07.850Z,27.73
2022-11-03T09:26:34.419Z,24.38
2022-11-03T09:29:00.987Z,21.55
2022-11-03T09:31:29.169Z,22.50
2022-11-03T09:33:56.065Z,19.10
2022-11-03T09:36:22.622Z,19.60
2022-11-03T09:38:49.272Z,19.38
2022-11-03T09:41:26.625Z,19.55
2022-11-03T09:43:57.539Z,18.63
2022-11-03T09:46:25.518Z,19.65
2022-11-03T09:48:54.925Z,18.73
2022-11-03T09:51:22.723Z,17.17
2022-11-03T09:53:49.799Z,16.55
2022-11-03T09:56:22.941Z,18.75
2022-11-03T09:58:54.105Z,22.25
2022-11-03T10:01:21.130Z,16.52
2022-11-03T10:03:47.797Z,23.67
2022-11-03T10:06:16.989Z,18.67
2022-11-03T10:08:48.337Z,16.48
2022-11-03T10:11:17.556Z,20.83
2022-11-03T10:13:49.136Z,20.13
2022-11-03T10:16:18.520Z,19.50
2022-11-03T10:18:47.521Z,15.30
2022-11-03T10:21:27.297Z,18.55
2022-11-03T10:23:53.968Z,20.67
2022-11-03T10:26:21.643Z,18.45
2022-11-03T10:29:06.079Z,16.88
2022-11-03T10:31:38.166Z,18.00
2022-11-03T10:34:06.827Z,19.48
2022-11-03T10:36:34.557Z,16.00
2022-11-03T10:39:23.852Z,15.90
2022-11-03T10:42:00.215Z,17.00
2022-11-03T10:44:28.758Z,17.80
2022-11-03T10:47:00.495Z,16.45
2022-11-03T10:49:39.385Z,22.05
2022-11-03T10:52:20.732Z,20.52
2022-11-03T10:54:47.919Z,24.23
2022-11-03T10:57:15.515Z,21.58
2022-11-03T10:59:43.401Z,17.83
2022-11-03T11:02:17.624Z,22.80
2022-11-03T11:04:46.478Z,24.42
2022-11-03T11:07:38.588Z,25.58
2022-11-03T11:10:18.030Z,24.45
2022-11-03T11:13:05.747Z,24.45
2022-11-03T11:15:43.478Z,22.77
2022-11-03T11:18:11.043Z,20.90
2022-11-03T11:20:41.968Z,20.98
2022-11-03T11:23:27.186Z,18.67
2022-11-03T11:26:09.219Z,18.67
2022-11-03T11:28:39.757Z,15.35
2022-11-03T11:31:28.122Z,16.23
2022-11-03T11:34:09.980Z,17.55
2022-11-03T11:36:37.923Z,18.80
2022-11-03T11:39:10.631Z,15.73
2022-11-03T11:42:05.422Z,15.38
2022-11-03T11:44:47.126Z,12.60
2022-11-03T11:47:44.234Z,14.18
2022-11-03T11:50:28.027Z,14.35
2022-11-03T11:53:09.929Z,16.85
2022-11-03T11:55:47.816Z,14.52
2022-11-03T11:58:22.835Z,17.23
2022-11-03T12:00:58.817Z,15.98
2022-11-03T12:03:38.984Z,13.10
2022-11-03T12:06:06.108Z,11.73
2022-11-03T12:08:32.921Z,9.82
2022-11-03T12:11:02.415Z,13.65
2022-11-03T12:13:42.241Z,12.88
2022-11-03T12:16:09.335Z,13.73
2022-11-03T12:18:41.673Z,10.75
2022-11-03T12:21:14.750Z,11.57
2022-11-03T12:23:47.549Z,10.25
2022-11-03T12:26:38.107Z,10.37
2022-11-03T12:29:08.459Z,12.77
2022-11-03T12:31:37.408Z,10.63
2022-11-03T12:34:03.947Z,12.30
2022-11-03T12:36:30.459Z,10.43
2022-11-03T12:38:57.000Z,8.98
2022-11-03T12:41:27.019Z,10.48
2022-11-03T12:43:57.357Z,8.93
2022-11-03T12:46:24.130Z,9.50
2022-11-03T12:48:50.954Z,7.40
2022-11-03T12:51:20.546Z,7.88
2022-11-03T12:53:47.075Z,9.57
2022-11-03T12:56:15.088Z,7.75
2022-11-03T12:58:42.049Z,8.98
2022-11-03T13:01:11.125Z,9.93
2022-11-03T13:03:37.762Z,11.30
2022-11-03T13:06:05.629Z,8.23
2022-11-03T13:08:32.298Z,8.55
2022-11-03T13:11:01.179Z,10.05
2022-11-03T13:13:30.546Z,6.45
2022-11-03T13:15:57.316Z,6.75
2022-11-03T13:18:24.019Z,8.02
2022-11-03T13:20:52.928Z,9.80
2022-11-03T13:23:22.972Z,6.30
2022-11-03T13:25:49.867Z,5.72
2022-11-03T13:28:16.430Z,10.07
2022-11-03T13:30:43.683Z,6.55
2022-11-03T13:33:10.832Z,9.25
2022-11-03T13:35:37.654Z,7.07
2022-11-03T13:38:04.202Z,9.05
2022-11-03T13:43:17.282Z,4.72
2022-11-03T13:45:46.173Z,6.18
2022-11-03T13:51:03.763Z,11.27
2022-11-03T13:56:21.181Z,9.05
2022-11-03T14:01:36.008Z,11.00
2022-11-03T14:06:49.757Z,6.35
2022-11-03T14:09:16.276Z,7.53
2022-11-03T14:12:03.782Z,7.72
2022-11-03T14:14:32.862Z,9.63
2022-11-03T14:16:59.642Z,8.45
2022-11-03T14:19:34.484Z,8.20
2022-11-03T14:22:05.682Z,6.57
2022-11-03T14:24:32.130Z,10.60
2022-11-03T14:26:58.638Z,7.07
2022-11-03T14:29:25.127Z,9.32
2022-11-03T14:31:51.587Z,26.02
2022-11-03T14:34:20.473Z,22.55
2022-11-03T14:36:47.082Z,22.80
2022-11-03T14:39:13.614Z,23.13
2022-11-03T14:41:58.999Z,26.75
2022-11-03T14:44:27.789Z,20.75
2022-11-03T14:46:56.878Z,22.55
2022-11-03T14:49:23.917Z,24.45
2022-11-03T14:51:51.181Z,22.17
2022-11-03T14:54:17.733Z,22.38
2022-11-03T14:56:47.778Z,30.52
2022-11-03T14:59:14.417Z,22.17
2022-11-03T15:01:43.402Z,27.08
2022-11-03T15:04:10.240Z,29.05
2022-11-03T15:06:36.827Z,26.23
2022-11-03T15:09:04.699Z,21.63
2022-11-03T15:11:31.535Z,37.70
2022-11-03T15:13:58.164Z,24.23
2022-11-03T15:16:25.272Z,21.83
2022-11-03T15:18:52.113Z,26.17
2022-11-03T15:21:18.709Z,28.98
2022-11-03T15:26:31.800Z,26.58
2022-11-03T15:28:58.507Z,24.98
2022-11-03T15:31:25.025Z,26.40
2022-11-03T15:33:54.186Z,27.45
2022-11-03T15:36:20.913Z,27.75
2022-11-03T15:38:47.379Z,29.65
2022-11-03T15:41:19.596Z,28.95
2022-11-03T15:43:52.514Z,38.85
2022-11-03T15:46:20.273Z,41.50
2022-11-03T15:48:49.369Z,37.72
2022-11-03T15:51:16.267Z,33.53
2022-11-03T15:53:45.167Z,34.92
2022-11-03T15:56:11.733Z,34.28
2022-11-03T15:58:38.582Z,33.63
2022-11-03T16:01:07.463Z,34.95
2022-11-03T16:03:38.845Z,33.17
2022-11-03T16:06:05.825Z,35.95
2022-11-03T16:08:32.393Z,31.65
2022-11-03T16:10:58.887Z,31.88
2022-11-03T16:13:25.724Z,43.25
2022-11-03T16:15:54.851Z,38.33
2022-11-03T16:18:21.663Z,37.13
2022-11-03T16:20:48.269Z,34.10
2022-11-03T16:23:14.812Z,34.28
2022-11-03T16:25:41.383Z,35.15
2022-11-03T16:28:08.192Z,52.58
2022-11-03T16:30:35.459Z,51.30
2022-11-03T16:33:02.115Z,50.83
2022-11-03T16:35:30.859Z,66.28
2022-11-03T16:37:57.417Z,55.90
2022-11-03T16:40:23.961Z,49.97
2022-11-03T16:42:52.739Z,40.17
2022-11-03T16:45:22.073Z,40.63
2022-11-03T16:47:51.309Z,43.67
2022-11-03T16:50:19.157Z,42.65
2022-11-03T16:52:52.604Z,49.25
2022-11-03T16:55:19.800Z,40.15
2022-11-03T16:57:48.820Z,45.45
2022-11-03T17:00:18.153Z,51.00
2022-11-03T17:02:46.481Z,48.08
2022-11-03T17:05:17.643Z,52.22
2022-11-03T17:07:50.101Z,46.58
2022-11-03T17:10:19.758Z,48.30
2022-11-03T17:12:48.804Z,50.08
2022-11-03T17:15:17.670Z,57.50
2022-11-03T17:17:44.286Z,48.20
2022-11-03T17:20:12.109Z,45.63
2022-11-03T17:22:39.129Z,48.10
2022-11-03T17:25:07.821Z,46.95
2022-11-03T17:27:43.350Z,44.35
2022-11-03T17:30:22.291Z,41.65
2022-11-03T17:32:50.889Z,38.25
2022-11-03T17:35:24.610Z,40.80
2022-11-03T17:40:21.612Z,39.45
2022-11-03T17:42:49.719Z,44.95
2022-11-03T17:45:21.173Z,43.33
2022-11-03T17:47:49.673Z,49.72
2022-11-03T17:50:19.041Z,57.63
2022-11-03T17:52:47.320Z,234.65
2022-11-03T17:55:18.399Z,122.20
2022-11-03T17:57:45.571Z,72.13
2022-11-03T18:00:18.136Z,52.58
2022-11-03T18:02:45.263Z,50.33
2022-11-03T18:05:15.318Z,51.88
2022-11-03T18:07:47.440Z,50.45
2022-11-03T18:10:14.669Z,54.72
2022-11-03T18:13:03.827Z,66.15
2022-11-03T18:15:31.483Z,56.67
2022-11-03T18:17:58.157Z,74.10
2022-11-03T18:20:30.496Z,64.13
2022-11-03T18:23:11.051Z,66.65
2022-11-03T18:25:37.648Z,66.22
2022-11-03T18:28:04.688Z,63.67
2022-11-03T18:30:31.459Z,60.88
2022-11-03T18:33:02.947Z,60.00
2022-11-03T18:35:33.085Z,122.18
2022-11-03T18:38:00.207Z,119.32
2022-11-03T18:40:26.860Z,98.57
2022-11-03T18:42:53.334Z,64.45
2022-11-03T18:45:20.095Z,77.78
2022-11-03T18:47:46.934Z,67.28
2022-11-03T18:50:15.657Z,61.70
2022-11-03T18:52:48.263Z,61.58
2022-11-03T18:55:17.316Z,61.88
2022-11-03T18:57:46.400Z,56.88
2022-11-03T19:00:19.610Z,58.90
2022-11-03T19:02:48.720Z,51.65
2022-11-03T19:05:16.324Z,54.92
2022-11-03T19:07:45.949Z,60.95
2022-11-03T19:10:15.726Z,60.78
2022-11-03T19:12:44.702Z,55.78
2022-11-03T19:15:23.920Z,58.50
2022-11-03T19:17:54.699Z,60.90
2022-11-03T19:20:21.775Z,60.33
2022-11-03T19:22:48.563Z,51.22
2022-11-03T19:25:15.706Z,56.53
2022-11-03T19:28:05.798Z,62.45
2022-11-03T19:30:32.577Z,58.13
2022-11-03T19:32:59.173Z,55.28
2022-11-03T19:45:58.277Z,55.38
2022-11-03T19:48:29.781Z,55.58
2022-11-03T19:50:56.873Z,52.38
2022-11-03T19:53:31.406Z,59.53
2022-11-03T19:55:58.278Z,60.10
2022-11-03T19:58:27.767Z,57.35
2022-11-03T20:00:57.589Z,94.35
2022-11-03T20:03:25.195Z,75.03
2022-11-03T20:05:54.916Z,54.53
2022-11-03T20:08:27.577Z,46.45
2022-11-03T20:10:59.135Z,46.67
2022-11-03T20:13:30.276Z,40.42
2022-11-03T20:16:00.541Z,37.90
2022-11-03T20:18:30.834Z,39.45
2022-11-03T20:20:58.302Z,40.58
2022-11-03T20:23:30.916Z,36.63
2022-11-03T20:26:00.228Z,37.60
2022-11-03T20:28:30.066Z,35.92
2022-11-03T20:30:57.530Z,38.35
2022-11-03T20:33:24.947Z,36.72
2022-11-03T20:35:53.445Z,36.58
2022-11-03T20:38:22.904Z,42.42
2022-11-03T20:40:55.540Z,47.45
2022-11-03T20:43:26.696Z,44.63
2022-11-03T20:45:56.760Z,56.55
2022-11-03T20:48:24.411Z,48.72
2022-11-03T20:50:54.141Z,45.10
2022-11-03T20:53:58.055Z,45.35
2022-11-03T20:56:28.620Z,50.45
2022-11-03T20:58:56.058Z,42.60
2022-11-03T21:01:26.920Z,48.60
2022-11-03T21:03:59.305Z,56.47
2022-11-03T21:06:29.812Z,58.60
2022-11-03T21:08:57.357Z,75.22
2022-11-03T21:11:29.456Z,85.72
2022-11-03T21:14:16.059Z,70.70
2022-11-03T21:17:01.520Z,54.20
2022-11-03T21:19:49.690Z,51.22
2022-11-03T21:22:51.922Z,45.42
2022-11-03T21:25:22.234Z,39.75
2022-11-03T21:27:51.977Z,36.83
2022-11-03T21:30:18.729Z,35.95
2022-11-03T21:32:45.791Z,38.63
2022-11-03T21:35:18.295Z,38.13
2022-11-03T21:37:45.304Z,36.72
2022-11-03T21:40:12.088Z,38.67
2022-11-03T21:42:57.292Z,35.67
2022-11-03T21:45:23.946Z,36.65
2022-11-03T21:48:13.562Z,52.92
2022-11-03T21:50:41.151Z,45.58
2022-11-03T21:53:10.332Z,45.63
2022-11-03T21:55:37.202Z,54.78
2022-11-03T21:58:04.627Z,43.63
2022-11-03T22:00:31.725Z,47.25
2022-11-03T22:02:59.266Z,39.28
2022-11-03T22:05:26.597Z,33.67
2022-11-03T22:07:53.181Z,32.67
2022-11-03T22:10:20.632Z,38.13
2022-11-03T22:12:47.225Z,44.00
2022-11-03T22:15:32.278Z,40.92
2022-11-03T22:18:03.171Z,35.22
2022-11-03T22:20:48.170Z,33.67
2022-11-03T22:23:34.206Z,29.70
2022-11-03T22:26:19.829Z,31.25
2022-11-03T22:29:11.438Z,24.77
2022-11-03T22:31:40.569Z,31.42
2022-11-03T22:34:25.596Z,44.35
2022-11-03T22:36:52.163Z,30.35
2022-11-03T22:39:37.214Z,35.63
2022-11-03T22:42:25.248Z,31.98
2022-11-03T22:45:10.008Z,28.95
2022-11-03T22:47:36.588Z,31.33
2022-11-03T22:50:03.096Z,32.67
2022-11-03T22:52:29.615Z,28.10
2022-11-03T22:54:56.120Z,28.15
2022-11-03T22:57:23.164Z,30.20
2022-11-03T22:59:49.703Z,31.02
2022-11-03T23:02:16.280Z,29.25
2022-11-03T23:04:42.821Z,25.95
2022-11-03T23:07:09.353Z,27.63
2022-11-03T23:09:35.870Z,28.77
2022-11-03T23:12:02.392Z,27.42
2022-11-03T23:14:53.751Z,36.38
2022-11-03T23:17:40.683Z,27.27
2022-11-03T23:20:27.167Z,26.77
2022-11-03T23:22:53.680Z,27.85
2022-11-03T23:25:20.215Z,26.17
2022-11-03T23:27:46.733Z,27.40
2022-11-03T23:30:13.371Z,29.00
2022-11-03T23:32:39.903Z,27.75
2022-11-03T23:35:06.700Z,27.05
2022-11-03T23:37:33.328Z,21.67
2022-11-03T23:39:59.859Z,22.98
2022-11-03T23:42:26.472Z,24.52
2022-11-03T23:45:11.574Z,24.60
2022-11-03T23:47:56.353Z,28.80
2022-11-03T23:50:22.850Z,27.98
2022-11-03T23:52:49.504Z,24.23
2022-11-03T23:55:16.004Z,30.85
2022-11-03T23:58:00.735Z,34.08
